sensor_id;sensor_type;location;lat;lon;timestamp;pressure;altitude;pressure_sealevel;temperature;humidity
36138;BME280;67787;50.074;21.904;2024-03-07T00:01:06;99560.34;;;2.20;83.91
36138;BME280;67787;50.074;21.904;2024-03-07T00:03:35;99560.98;;;2.21;83.98
36138;BME280;67787;50.074;21.904;2024-03-07T00:06:03;99560.65;;;2.21;84.24
36138;BME280;67787;50.074;21.904;2024-03-07T00:08:31;99562.06;;;2.20;84.07
36138;BME280;67787;50.074;21.904;2024-03-07T00:10:59;99562.44;;;2.19;84.16
36138;BME280;67787;50.074;21.904;2024-03-07T00:13:27;99558.77;;;2.19;84.23
36138;BME280;67787;50.074;21.904;2024-03-07T00:15:55;99556.70;;;2.18;84.32
36138;BME280;67787;50.074;21.904;2024-03-07T00:18:23;99566.49;;;2.18;84.09
36138;BME280;67787;50.074;21.904;2024-03-07T00:20:51;99561.06;;;2.18;84.15
36138;BME280;67787;50.074;21.904;2024-03-07T00:23:20;99557.71;;;2.19;84.06
36138;BME280;67787;50.074;21.904;2024-03-07T00:25:48;99558.73;;;2.20;84.03
36138;BME280;67787;50.074;21.904;2024-03-07T00:28:17;99555.78;;;2.20;84.17
36138;BME280;67787;50.074;21.904;2024-03-07T00:30:45;99557.67;;;2.20;84.20
36138;BME280;67787;50.074;21.904;2024-03-07T00:33:13;99562.74;;;2.21;84.10
36138;BME280;67787;50.074;21.904;2024-03-07T00:35:41;99561.66;;;2.22;84.44
36138;BME280;67787;50.074;21.904;2024-03-07T00:38:11;99554.45;;;2.23;84.11
36138;BME280;67787;50.074;21.904;2024-03-07T00:40:39;99561.29;;;2.23;84.10
36138;BME280;67787;50.074;21.904;2024-03-07T00:43:07;99563.76;;;2.22;83.97
36138;BME280;67787;50.074;21.904;2024-03-07T00:45:35;99558.50;;;2.22;84.13
36138;BME280;67787;50.074;21.904;2024-03-07T00:48:03;99562.67;;;2.23;84.06
36138;BME280;67787;50.074;21.904;2024-03-07T00:50:31;99561.08;;;2.24;84.06
36138;BME280;67787;50.074;21.904;2024-03-07T00:53:00;99562.41;;;2.26;84.01
36138;BME280;67787;50.074;21.904;2024-03-07T00:55:28;99561.67;;;2.27;84.27
36138;BME280;67787;50.074;21.904;2024-03-07T00:57:55;99561.16;;;2.27;84.37
36138;BME280;67787;50.074;21.904;2024-03-07T01:00:23;99559.75;;;2.27;84.10
36138;BME280;67787;50.074;21.904;2024-03-07T01:02:51;99562.66;;;2.29;83.88
36138;BME280;67787;50.074;21.904;2024-03-07T01:05:21;99565.28;;;2.30;84.04
36138;BME280;67787;50.074;21.904;2024-03-07T01:07:50;99563.88;;;2.30;83.95
36138;BME280;67787;50.074;21.904;2024-03-07T01:10:18;99562.66;;;2.29;84.22
36138;BME280;67787;50.074;21.904;2024-03-07T01:12:46;99560.89;;;2.30;83.98
36138;BME280;67787;50.074;21.904;2024-03-07T01:15:14;99564.20;;;2.30;84.04
36138;BME280;67787;50.074;21.904;2024-03-07T01:17:42;99563.52;;;2.29;84.16
36138;BME280;67787;50.074;21.904;2024-03-07T01:20:12;99562.86;;;2.29;84.01
36138;BME280;67787;50.074;21.904;2024-03-07T01:22:40;99560.77;;;2.28;83.96
36138;BME280;67787;50.074;21.904;2024-03-07T01:25:08;99567.27;;;2.28;83.94
36138;BME280;67787;50.074;21.904;2024-03-07T01:27:36;99565.52;;;2.27;83.98
36138;BME280;67787;50.074;21.904;2024-03-07T01:30:05;99571.11;;;2.27;83.76
36138;BME280;67787;50.074;21.904;2024-03-07T01:32:36;99567.64;;;2.27;83.97
36138;BME280;67787;50.074;21.904;2024-03-07T01:35:05;99569.66;;;2.24;83.94
36138;BME280;67787;50.074;21.904;2024-03-07T01:37:35;99569.21;;;2.21;83.97
36138;BME280;67787;50.074;21.904;2024-03-07T01:40:03;99570.10;;;2.21;83.91
36138;BME280;67787;50.074;21.904;2024-03-07T01:42:33;99571.39;;;2.19;84.01
36138;BME280;67787;50.074;21.904;2024-03-07T01:45:01;99572.96;;;2.19;84.27
36138;BME280;67787;50.074;21.904;2024-03-07T01:47:29;99568.11;;;2.17;83.89
36138;BME280;67787;50.074;21.904;2024-03-07T01:49:57;99569.42;;;2.14;83.85
36138;BME280;67787;50.074;21.904;2024-03-07T01:52:26;99571.02;;;2.13;84.03
36138;BME280;67787;50.074;21.904;2024-03-07T01:54:55;99569.66;;;2.12;83.63
36138;BME280;67787;50.074;21.904;2024-03-07T01:57:23;99570.52;;;2.12;84.09
36138;BME280;67787;50.074;21.904;2024-03-07T01:59:51;99571.94;;;2.11;83.68
36138;BME280;67787;50.074;21.904;2024-03-07T02:02:19;99574.96;;;2.10;84.03
36138;BME280;67787;50.074;21.904;2024-03-07T02:04:47;99573.59;;;2.09;84.00
36138;BME280;67787;50.074;21.904;2024-03-07T02:07:15;99575.55;;;2.08;83.71
36138;BME280;67787;50.074;21.904;2024-03-07T02:09:43;99575.69;;;2.09;83.98
36138;BME280;67787;50.074;21.904;2024-03-07T02:12:11;99575.17;;;2.08;83.84
36138;BME280;67787;50.074;21.904;2024-03-07T02:14:39;99578.95;;;2.05;83.71
36138;BME280;67787;50.074;21.904;2024-03-07T02:17:07;99571.65;;;2.04;83.99
36138;BME280;67787;50.074;21.904;2024-03-07T02:19:35;99570.64;;;2.03;83.85
36138;BME280;67787;50.074;21.904;2024-03-07T02:22:02;99571.72;;;2.01;84.00
36138;BME280;67787;50.074;21.904;2024-03-07T02:24:31;99566.95;;;2.03;83.49
36138;BME280;67787;50.074;21.904;2024-03-07T02:26:59;99571.42;;;2.05;83.85
36138;BME280;67787;50.074;21.904;2024-03-07T02:29:27;99568.13;;;2.04;83.86
36138;BME280;67787;50.074;21.904;2024-03-07T02:31:55;99570.02;;;2.00;83.55
36138;BME280;67787;50.074;21.904;2024-03-07T02:34:24;99563.77;;;1.98;83.85
36138;BME280;67787;50.074;21.904;2024-03-07T02:36:55;99563.81;;;1.97;83.65
36138;BME280;67787;50.074;21.904;2024-03-07T02:39:23;99562.77;;;1.97;83.78
36138;BME280;67787;50.074;21.904;2024-03-07T02:41:52;99566.61;;;1.97;83.81
36138;BME280;67787;50.074;21.904;2024-03-07T02:44:21;99565.42;;;1.95;83.76
36138;BME280;67787;50.074;21.904;2024-03-07T02:46:49;99566.88;;;1.93;83.21
36138;BME280;67787;50.074;21.904;2024-03-07T02:49:17;99568.69;;;1.91;83.48
36138;BME280;67787;50.074;21.904;2024-03-07T02:51:45;99567.00;;;1.89;83.64
36138;BME280;67787;50.074;21.904;2024-03-07T02:54:13;99566.63;;;1.90;83.64
36138;BME280;67787;50.074;21.904;2024-03-07T02:56:41;99568.03;;;1.90;83.41
36138;BME280;67787;50.074;21.904;2024-03-07T02:59:09;99567.53;;;1.88;83.72
36138;BME280;67787;50.074;21.904;2024-03-07T03:01:37;99567.41;;;1.87;83.77
36138;BME280;67787;50.074;21.904;2024-03-07T03:04:05;99569.24;;;1.84;83.17
36138;BME280;67787;50.074;21.904;2024-03-07T03:06:33;99569.80;;;1.83;83.35
36138;BME280;67787;50.074;21.904;2024-03-07T03:09:00;99570.19;;;1.82;83.37
36138;BME280;67787;50.074;21.904;2024-03-07T03:11:28;99570.60;;;1.80;83.12
36138;BME280;67787;50.074;21.904;2024-03-07T03:13:57;99574.16;;;1.77;83.29
36138;BME280;67787;50.074;21.904;2024-03-07T03:16:25;99572.93;;;1.77;83.32
36138;BME280;67787;50.074;21.904;2024-03-07T03:19:13;99576.78;;;1.77;83.36
36138;BME280;67787;50.074;21.904;2024-03-07T03:21:41;99579.45;;;1.76;83.22
36138;BME280;67787;50.074;21.904;2024-03-07T03:24:10;99582.13;;;1.74;83.54
36138;BME280;67787;50.074;21.904;2024-03-07T03:26:39;99580.79;;;1.72;83.10
36138;BME280;67787;50.074;21.904;2024-03-07T03:29:10;99582.70;;;1.72;83.20
36138;BME280;67787;50.074;21.904;2024-03-07T03:31:39;99584.08;;;1.73;83.22
36138;BME280;67787;50.074;21.904;2024-03-07T03:34:07;99584.59;;;1.73;83.18
36138;BME280;67787;50.074;21.904;2024-03-07T03:36:37;99584.63;;;1.72;82.95
36138;BME280;67787;50.074;21.904;2024-03-07T03:39:06;99587.80;;;1.70;82.99
36138;BME280;67787;50.074;21.904;2024-03-07T03:41:35;99590.42;;;1.71;83.25
36138;BME280;67787;50.074;21.904;2024-03-07T03:44:03;99592.73;;;1.70;83.17
36138;BME280;67787;50.074;21.904;2024-03-07T03:46:31;99590.33;;;1.68;83.14
36138;BME280;67787;50.074;21.904;2024-03-07T03:48:59;99589.85;;;1.66;83.26
36138;BME280;67787;50.074;21.904;2024-03-07T03:51:28;99589.52;;;1.65;83.41
36138;BME280;67787;50.074;21.904;2024-03-07T03:53:55;99589.03;;;1.64;83.11
36138;BME280;67787;50.074;21.904;2024-03-07T03:56:23;99589.57;;;1.63;83.09
36138;BME280;67787;50.074;21.904;2024-03-07T03:58:53;99588.95;;;1.61;83.18
36138;BME280;67787;50.074;21.904;2024-03-07T04:01:21;99586.70;;;1.60;83.07
36138;BME280;67787;50.074;21.904;2024-03-07T04:03:48;99589.11;;;1.61;82.85
36138;BME280;67787;50.074;21.904;2024-03-07T04:06:16;99589.65;;;1.61;83.11
36138;BME280;67787;50.074;21.904;2024-03-07T04:08:45;99590.59;;;1.59;82.90
36138;BME280;67787;50.074;21.904;2024-03-07T04:11:13;99592.56;;;1.56;83.09
36138;BME280;67787;50.074;21.904;2024-03-07T04:13:41;99598.02;;;1.56;83.10
36138;BME280;67787;50.074;21.904;2024-03-07T04:16:09;99597.84;;;1.55;83.09
36138;BME280;67787;50.074;21.904;2024-03-07T04:18:38;99600.67;;;1.54;83.11
36138;BME280;67787;50.074;21.904;2024-03-07T04:21:07;99599.79;;;1.54;83.21
36138;BME280;67787;50.074;21.904;2024-03-07T04:23:40;99598.37;;;1.55;83.04
36138;BME280;67787;50.074;21.904;2024-03-07T04:26:08;99599.98;;;1.54;82.80
36138;BME280;67787;50.074;21.904;2024-03-07T04:28:36;99603.56;;;1.50;82.87
36138;BME280;67787;50.074;21.904;2024-03-07T04:31:04;99602.66;;;1.51;82.85
36138;BME280;67787;50.074;21.904;2024-03-07T04:33:32;99602.69;;;1.50;83.18
36138;BME280;67787;50.074;21.904;2024-03-07T04:36:00;99605.34;;;1.49;82.84
36138;BME280;67787;50.074;21.904;2024-03-07T04:38:31;99604.48;;;1.49;82.94
36138;BME280;67787;50.074;21.904;2024-03-07T04:40:58;99610.28;;;1.47;82.65
36138;BME280;67787;50.074;21.904;2024-03-07T04:43:27;99609.83;;;1.44;82.70
36138;BME280;67787;50.074;21.904;2024-03-07T04:45:55;99611.67;;;1.42;82.66
36138;BME280;67787;50.074;21.904;2024-03-07T04:48:23;99613.59;;;1.42;82.87
36138;BME280;67787;50.074;21.904;2024-03-07T04:50:51;99610.23;;;1.43;83.01
36138;BME280;67787;50.074;21.904;2024-03-07T04:53:19;99613.60;;;1.41;82.76
36138;BME280;67787;50.074;21.904;2024-03-07T04:55:47;99615.16;;;1.41;82.54
36138;BME280;67787;50.074;21.904;2024-03-07T04:58:15;99614.98;;;1.42;82.77
36138;BME280;67787;50.074;21.904;2024-03-07T05:00:43;99617.42;;;1.42;82.56
36138;BME280;67787;50.074;21.904;2024-03-07T05:03:11;99615.67;;;1.42;82.74
36138;BME280;67787;50.074;21.904;2024-03-07T05:05:39;99616.52;;;1.43;82.65
36138;BME280;67787;50.074;21.904;2024-03-07T05:08:09;99622.27;;;1.43;82.71
36138;BME280;67787;50.074;21.904;2024-03-07T05:10:38;99623.52;;;1.43;82.49
36138;BME280;67787;50.074;21.904;2024-03-07T05:13:06;99626.48;;;1.43;82.76
36138;BME280;67787;50.074;21.904;2024-03-07T05:15:34;99627.01;;;1.43;82.52
36138;BME280;67787;50.074;21.904;2024-03-07T05:18:05;99628.21;;;1.43;82.46
36138;BME280;67787;50.074;21.904;2024-03-07T05:20:34;99631.04;;;1.42;82.41
36138;BME280;67787;50.074;21.904;2024-03-07T05:23:02;99632.67;;;1.41;82.75
36138;BME280;67787;50.074;21.904;2024-03-07T05:25:33;99637.43;;;1.39;82.40
36138;BME280;67787;50.074;21.904;2024-03-07T05:28:00;99639.73;;;1.37;82.45
36138;BME280;67787;50.074;21.904;2024-03-07T05:30:30;99637.06;;;1.39;82.51
36138;BME280;67787;50.074;21.904;2024-03-07T05:33:00;99643.36;;;1.40;82.75
36138;BME280;67787;50.074;21.904;2024-03-07T05:35:29;99644.73;;;1.40;82.44
36138;BME280;67787;50.074;21.904;2024-03-07T05:37:58;99644.00;;;1.41;82.02
36138;BME280;67787;50.074;21.904;2024-03-07T05:40:29;99649.01;;;1.44;82.39
36138;BME280;67787;50.074;21.904;2024-03-07T05:42:57;99648.66;;;1.44;82.37
36138;BME280;67787;50.074;21.904;2024-03-07T05:45:25;99652.04;;;1.42;82.39
36138;BME280;67787;50.074;21.904;2024-03-07T05:47:52;99652.57;;;1.41;82.36
36138;BME280;67787;50.074;21.904;2024-03-07T05:50:21;99653.93;;;1.43;82.27
36138;BME280;67787;50.074;21.904;2024-03-07T05:52:49;99655.62;;;1.44;82.56
36138;BME280;67787;50.074;21.904;2024-03-07T05:55:17;99655.24;;;1.45;82.46
36138;BME280;67787;50.074;21.904;2024-03-07T05:57:47;99659.32;;;1.44;82.35
36138;BME280;67787;50.074;21.904;2024-03-07T06:00:15;99661.98;;;1.43;82.29
36138;BME280;67787;50.074;21.904;2024-03-07T06:02:43;99664.05;;;1.43;82.25
36138;BME280;67787;50.074;21.904;2024-03-07T06:05:11;99659.60;;;1.40;82.11
36138;BME280;67787;50.074;21.904;2024-03-07T06:07:44;99660.31;;;1.39;81.87
36138;BME280;67787;50.074;21.904;2024-03-07T06:10:15;99662.45;;;1.37;82.43
36138;BME280;67787;50.074;21.904;2024-03-07T06:12:44;99663.18;;;1.36;82.26
36138;BME280;67787;50.074;21.904;2024-03-07T06:15:16;99667.22;;;1.36;82.27
36138;BME280;67787;50.074;21.904;2024-03-07T06:17:45;99667.42;;;1.34;82.23
36138;BME280;67787;50.074;21.904;2024-03-07T06:20:14;99670.96;;;1.32;82.40
36138;BME280;67787;50.074;21.904;2024-03-07T06:22:51;99669.25;;;1.31;82.14
36138;BME280;67787;50.074;21.904;2024-03-07T06:25:22;99672.77;;;1.30;82.13
36138;BME280;67787;50.074;21.904;2024-03-07T06:28:05;99674.94;;;1.27;82.30
36138;BME280;67787;50.074;21.904;2024-03-07T06:30:37;99676.76;;;1.24;81.94
36138;BME280;67787;50.074;21.904;2024-03-07T06:33:07;99676.48;;;1.21;82.22
36138;BME280;67787;50.074;21.904;2024-03-07T06:35:35;99683.09;;;1.22;81.85
36138;BME280;67787;50.074;21.904;2024-03-07T06:38:10;99681.36;;;1.22;82.05
36138;BME280;67787;50.074;21.904;2024-03-07T06:40:39;99683.05;;;1.24;82.43
36138;BME280;67787;50.074;21.904;2024-03-07T06:43:10;99686.18;;;1.25;82.03
36138;BME280;67787;50.074;21.904;2024-03-07T06:45:39;99689.67;;;1.25;82.10
36138;BME280;67787;50.074;21.904;2024-03-07T06:48:07;99690.29;;;1.21;82.00
36138;BME280;67787;50.074;21.904;2024-03-07T06:50:37;99691.58;;;1.18;81.91
36138;BME280;67787;50.074;21.904;2024-03-07T06:53:06;99691.36;;;1.20;82.19
36138;BME280;67787;50.074;21.904;2024-03-07T06:55:35;99693.64;;;1.20;82.05
36138;BME280;67787;50.074;21.904;2024-03-07T06:58:03;99695.44;;;1.18;82.00
36138;BME280;67787;50.074;21.904;2024-03-07T07:00:35;99697.52;;;1.18;82.38
36138;BME280;67787;50.074;21.904;2024-03-07T07:03:05;99701.32;;;1.19;82.19
36138;BME280;67787;50.074;21.904;2024-03-07T07:05:35;99704.97;;;1.21;82.18
36138;BME280;67787;50.074;21.904;2024-03-07T07:08:03;99703.58;;;1.21;82.30
36138;BME280;67787;50.074;21.904;2024-03-07T07:10:32;99705.83;;;1.21;81.94
36138;BME280;67787;50.074;21.904;2024-03-07T07:13:00;99705.98;;;1.23;82.12
36138;BME280;67787;50.074;21.904;2024-03-07T07:15:28;99707.21;;;1.22;81.98
36138;BME280;67787;50.074;21.904;2024-03-07T07:17:56;99707.83;;;1.18;82.05
36138;BME280;67787;50.074;21.904;2024-03-07T07:20:24;99711.86;;;1.18;81.90
36138;BME280;67787;50.074;21.904;2024-03-07T07:22:53;99719.88;;;1.18;82.22
36138;BME280;67787;50.074;21.904;2024-03-07T07:25:21;99716.76;;;1.17;82.06
36138;BME280;67787;50.074;21.904;2024-03-07T07:27:51;99720.30;;;1.15;81.82
36138;BME280;67787;50.074;21.904;2024-03-07T07:30:21;99720.66;;;1.15;81.80
36138;BME280;67787;50.074;21.904;2024-03-07T07:32:51;99727.79;;;1.16;81.87
36138;BME280;67787;50.074;21.904;2024-03-07T07:35:20;99729.33;;;1.18;81.89
36138;BME280;67787;50.074;21.904;2024-03-07T07:37:50;99727.76;;;1.17;81.82
36138;BME280;67787;50.074;21.904;2024-03-07T07:40:22;99732.11;;;1.19;81.82
36138;BME280;67787;50.074;21.904;2024-03-07T07:42:52;99736.50;;;1.17;82.01
36138;BME280;67787;50.074;21.904;2024-03-07T07:45:21;99733.22;;;1.15;81.92
36138;BME280;67787;50.074;21.904;2024-03-07T07:47:51;99732.02;;;1.15;81.76
36138;BME280;67787;50.074;21.904;2024-03-07T07:50:21;99733.74;;;1.15;81.66
36138;BME280;67787;50.074;21.904;2024-03-07T07:52:51;99738.65;;;1.15;81.53
36138;BME280;67787;50.074;21.904;2024-03-07T07:55:22;99735.83;;;1.16;81.76
36138;BME280;67787;50.074;21.904;2024-03-07T07:57:53;99738.59;;;1.17;81.65
36138;BME280;67787;50.074;21.904;2024-03-07T08:00:26;99738.23;;;1.17;81.60
36138;BME280;67787;50.074;21.904;2024-03-07T08:02:59;99741.77;;;1.16;81.61
36138;BME280;67787;50.074;21.904;2024-03-07T08:05:31;99744.73;;;1.16;81.36
36138;BME280;67787;50.074;21.904;2024-03-07T08:08:02;99745.72;;;1.19;81.68
36138;BME280;67787;50.074;21.904;2024-03-07T08:10:34;99744.89;;;1.17;81.48
36138;BME280;67787;50.074;21.904;2024-03-07T08:13:04;99747.70;;;1.16;81.54
36138;BME280;67787;50.074;21.904;2024-03-07T08:15:34;99749.77;;;1.17;81.46
36138;BME280;67787;50.074;21.904;2024-03-07T08:18:02;99751.14;;;1.19;81.71
36138;BME280;67787;50.074;21.904;2024-03-07T08:20:38;99750.92;;;1.21;81.46
36138;BME280;67787;50.074;21.904;2024-03-07T08:23:07;99752.09;;;1.23;81.49
36138;BME280;67787;50.074;21.904;2024-03-07T08:25:36;99754.16;;;1.24;81.58
36138;BME280;67787;50.074;21.904;2024-03-07T08:28:07;99753.64;;;1.24;81.32
36138;BME280;67787;50.074;21.904;2024-03-07T08:30:35;99750.19;;;1.22;81.43
36138;BME280;67787;50.074;21.904;2024-03-07T08:33:03;99754.37;;;1.23;81.35
36138;BME280;67787;50.074;21.904;2024-03-07T08:35:34;99752.72;;;1.26;81.37
36138;BME280;67787;50.074;21.904;2024-03-07T08:38:02;99757.20;;;1.28;81.47
36138;BME280;67787;50.074;21.904;2024-03-07T08:40:31;99754.92;;;1.29;81.31
36138;BME280;67787;50.074;21.904;2024-03-07T08:43:01;99755.27;;;1.28;80.93
36138;BME280;67787;50.074;21.904;2024-03-07T08:45:31;99755.52;;;1.25;81.02
36138;BME280;67787;50.074;21.904;2024-03-07T08:48:03;99753.08;;;1.25;81.21
36138;BME280;67787;50.074;21.904;2024-03-07T08:50:37;99755.09;;;1.29;80.88
36138;BME280;67787;50.074;21.904;2024-03-07T08:53:06;99754.81;;;1.34;81.02
36138;BME280;67787;50.074;21.904;2024-03-07T08:55:35;99759.48;;;1.35;81.17
36138;BME280;67787;50.074;21.904;2024-03-07T08:58:04;99760.52;;;1.36;80.99
36138;BME280;67787;50.074;21.904;2024-03-07T09:00:35;99761.33;;;1.39;80.84
36138;BME280;67787;50.074;21.904;2024-03-07T09:03:06;99763.88;;;1.42;81.15
36138;BME280;67787;50.074;21.904;2024-03-07T09:05:40;99763.09;;;1.45;81.02
36138;BME280;67787;50.074;21.904;2024-03-07T09:08:09;99765.21;;;1.45;80.81
36138;BME280;67787;50.074;21.904;2024-03-07T09:10:37;99767.66;;;1.44;80.56
36138;BME280;67787;50.074;21.904;2024-03-07T09:13:09;99770.10;;;1.44;80.46
36138;BME280;67787;50.074;21.904;2024-03-07T09:15:38;99767.52;;;1.43;80.49
36138;BME280;67787;50.074;21.904;2024-03-07T09:18:05;99765.14;;;1.47;80.66
36138;BME280;67787;50.074;21.904;2024-03-07T09:20:34;99767.30;;;1.52;80.59
36138;BME280;67787;50.074;21.904;2024-03-07T09:23:03;99769.20;;;1.54;80.48
36138;BME280;67787;50.074;21.904;2024-03-07T09:25:30;99767.95;;;1.55;80.36
36138;BME280;67787;50.074;21.904;2024-03-07T09:28:02;99766.49;;;1.57;80.44
36138;BME280;67787;50.074;21.904;2024-03-07T09:30:30;99766.43;;;1.59;80.52
36138;BME280;67787;50.074;21.904;2024-03-07T09:32:58;99771.64;;;1.68;80.83
36138;BME280;67787;50.074;21.904;2024-03-07T09:35:27;99775.71;;;1.73;80.44
36138;BME280;67787;50.074;21.904;2024-03-07T09:37:54;99779.54;;;1.74;80.35
36138;BME280;67787;50.074;21.904;2024-03-07T09:40:24;99773.70;;;1.77;80.31
36138;BME280;67787;50.074;21.904;2024-03-07T09:42:56;99774.79;;;1.82;80.09
36138;BME280;67787;50.074;21.904;2024-03-07T09:45:29;99775.02;;;1.86;80.14
36138;BME280;67787;50.074;21.904;2024-03-07T09:47:57;99775.08;;;1.91;80.31
36138;BME280;67787;50.074;21.904;2024-03-07T09:50:29;99772.61;;;1.99;80.37
36138;BME280;67787;50.074;21.904;2024-03-07T09:52:58;99775.33;;;2.08;80.19
36138;BME280;67787;50.074;21.904;2024-03-07T09:55:28;99778.88;;;2.13;80.28
36138;BME280;67787;50.074;21.904;2024-03-07T09:57:58;99777.91;;;2.17;79.83
36138;BME280;67787;50.074;21.904;2024-03-07T10:00:28;99778.98;;;2.22;79.69
36138;BME280;67787;50.074;21.904;2024-03-07T10:05:30;99782.17;;;2.35;79.69
36138;BME280;67787;50.074;21.904;2024-03-07T10:08:00;99780.70;;;2.37;79.77
36138;BME280;67787;50.074;21.904;2024-03-07T10:10:28;99786.34;;;2.42;79.56
36138;BME280;67787;50.074;21.904;2024-03-07T10:12:59;99783.23;;;2.47;79.63
36138;BME280;67787;50.074;21.904;2024-03-07T10:15:32;99781.09;;;2.48;79.66
36138;BME280;67787;50.074;21.904;2024-03-07T10:18:02;99778.54;;;2.52;79.59
36138;BME280;67787;50.074;21.904;2024-03-07T10:20:30;99775.75;;;2.58;79.47
36138;BME280;67787;50.074;21.904;2024-03-07T10:22:58;99776.22;;;2.66;79.50
36138;BME280;67787;50.074;21.904;2024-03-07T10:25:27;99775.61;;;2.75;79.62
36138;BME280;67787;50.074;21.904;2024-03-07T10:27:57;99775.91;;;2.77;79.45
36138;BME280;67787;50.074;21.904;2024-03-07T10:30:27;99774.59;;;2.74;79.16
36138;BME280;67787;50.074;21.904;2024-03-07T10:32:57;99776.17;;;2.73;78.99
36138;BME280;67787;50.074;21.904;2024-03-07T10:35:29;99779.41;;;2.77;79.11
36138;BME280;67787;50.074;21.904;2024-03-07T10:37:59;99776.34;;;2.80;79.18
36138;BME280;67787;50.074;21.904;2024-03-07T10:40:29;99783.71;;;2.85;79.20
36138;BME280;67787;50.074;21.904;2024-03-07T10:42:59;99782.60;;;2.87;79.04
36138;BME280;67787;50.074;21.904;2024-03-07T10:45:33;99775.66;;;2.91;78.93
36138;BME280;67787;50.074;21.904;2024-03-07T10:48:08;99782.45;;;2.98;79.04
36138;BME280;67787;50.074;21.904;2024-03-07T10:53:33;99775.47;;;3.15;78.54
36138;BME280;67787;50.074;21.904;2024-03-07T10:59:07;99783.09;;;3.06;78.24
36138;BME280;67787;50.074;21.904;2024-03-07T11:03:55;99787.25;;;3.13;78.21
36138;BME280;67787;50.074;21.904;2024-03-07T11:06:25;99785.91;;;3.11;77.81
36138;BME280;67787;50.074;21.904;2024-03-07T11:08:54;99788.41;;;3.05;77.85
36138;BME280;67787;50.074;21.904;2024-03-07T11:11:23;99787.64;;;3.06;77.68
36138;BME280;67787;50.074;21.904;2024-03-07T11:13:53;99786.36;;;3.08;77.92
36138;BME280;67787;50.074;21.904;2024-03-07T11:16:22;99788.31;;;3.07;77.53
36138;BME280;67787;50.074;21.904;2024-03-07T11:19:19;99791.65;;;3.07;77.47
36138;BME280;67787;50.074;21.904;2024-03-07T11:21:50;99785.34;;;3.13;77.82
36138;BME280;67787;50.074;21.904;2024-03-07T11:24:28;99786.06;;;3.18;77.60
36138;BME280;67787;50.074;21.904;2024-03-07T11:26:59;99785.05;;;3.23;77.87
36138;BME280;67787;50.074;21.904;2024-03-07T11:29:49;99780.77;;;3.31;77.94
36138;BME280;67787;50.074;21.904;2024-03-07T11:32:29;99781.61;;;3.44;77.78
36138;BME280;67787;50.074;21.904;2024-03-07T11:34:59;99775.46;;;3.54;77.80
36138;BME280;67787;50.074;21.904;2024-03-07T11:37:38;99773.59;;;3.64;77.83
36138;BME280;67787;50.074;21.904;2024-03-07T11:43:01;99775.38;;;3.74;77.44
36138;BME280;67787;50.074;21.904;2024-03-07T11:45:32;99776.46;;;3.78;77.44
36138;BME280;67787;50.074;21.904;2024-03-07T11:48:06;99774.30;;;3.74;77.30
36138;BME280;67787;50.074;21.904;2024-03-07T11:50:39;99775.95;;;3.78;77.26
36138;BME280;67787;50.074;21.904;2024-03-07T11:53:09;99775.69;;;3.74;76.77
36138;BME280;67787;50.074;21.904;2024-03-07T11:55:40;99767.51;;;3.78;77.11
36138;BME280;67787;50.074;21.904;2024-03-07T11:58:19;99765.55;;;3.89;77.06
36138;BME280;67787;50.074;21.904;2024-03-07T12:00:51;99767.21;;;3.92;76.74
36138;BME280;67787;50.074;21.904;2024-03-07T12:03:21;99764.43;;;3.91;76.95
36138;BME280;67787;50.074;21.904;2024-03-07T12:05:51;99764.31;;;3.95;76.65
36138;BME280;67787;50.074;21.904;2024-03-07T12:08:20;99762.97;;;3.98;76.64
36138;BME280;67787;50.074;21.904;2024-03-07T12:10:53;99761.33;;;4.00;76.55
36138;BME280;67787;50.074;21.904;2024-03-07T12:13:26;99761.96;;;4.02;76.56
36138;BME280;67787;50.074;21.904;2024-03-07T12:15:56;99761.64;;;4.11;76.79
36138;BME280;67787;50.074;21.904;2024-03-07T12:18:27;99761.98;;;4.16;76.70
36138;BME280;67787;50.074;21.904;2024-03-07T12:20:56;99761.05;;;4.24;76.78
36138;BME280;67787;50.074;21.904;2024-03-07T12:23:27;99764.95;;;4.27;76.25
36138;BME280;67787;50.074;21.904;2024-03-07T12:26:02;99765.27;;;4.18;75.75
36138;BME280;67787;50.074;21.904;2024-03-07T12:28:31;99763.39;;;4.16;76.01
36138;BME280;67787;50.074;21.904;2024-03-07T12:31:03;99757.02;;;4.18;76.03
36138;BME280;67787;50.074;21.904;2024-03-07T12:33:33;99757.81;;;4.21;76.11
36138;BME280;67787;50.074;21.904;2024-03-07T12:36:08;99759.86;;;4.17;75.55
36138;BME280;67787;50.074;21.904;2024-03-07T12:38:38;99762.25;;;4.09;75.14
36138;BME280;67787;50.074;21.904;2024-03-07T12:41:10;99763.35;;;4.02;74.60
36138;BME280;67787;50.074;21.904;2024-03-07T12:43:43;99761.65;;;3.96;74.54
36138;BME280;67787;50.074;21.904;2024-03-07T12:46:14;99759.73;;;3.95;74.81
36138;BME280;67787;50.074;21.904;2024-03-07T12:48:45;99759.05;;;4.00;74.84
36138;BME280;67787;50.074;21.904;2024-03-07T12:51:15;99757.41;;;4.02;74.88
36138;BME280;67787;50.074;21.904;2024-03-07T12:53:47;99763.08;;;4.06;74.72
36138;BME280;67787;50.074;21.904;2024-03-07T12:56:16;99759.75;;;4.06;74.41
36138;BME280;67787;50.074;21.904;2024-03-07T12:58:47;99758.73;;;4.09;74.73
36138;BME280;67787;50.074;21.904;2024-03-07T13:01:18;99758.11;;;4.12;74.68
36138;BME280;67787;50.074;21.904;2024-03-07T13:03:47;99755.56;;;4.14;74.65
36138;BME280;67787;50.074;21.904;2024-03-07T13:06:16;99762.02;;;4.15;74.34
36138;BME280;67787;50.074;21.904;2024-03-07T13:08:54;99762.17;;;4.11;74.28
36138;BME280;67787;50.074;21.904;2024-03-07T13:11:23;99765.84;;;4.07;74.02
36138;BME280;67787;50.074;21.904;2024-03-07T13:13:51;99764.56;;;4.03;74.08
36138;BME280;67787;50.074;21.904;2024-03-07T13:16:20;99763.32;;;4.04;74.48
36138;BME280;67787;50.074;21.904;2024-03-07T13:18:48;99765.29;;;4.08;74.47
36138;BME280;67787;50.074;21.904;2024-03-07T13:21:17;99759.23;;;4.10;74.14
36138;BME280;67787;50.074;21.904;2024-03-07T13:23:46;99761.28;;;4.11;74.19
36138;BME280;67787;50.074;21.904;2024-03-07T13:26:20;99757.67;;;4.09;73.92